Terminal Aerodrome Forecast
Issued by NWS

Home | Current Version | Previous Version | Text Only | Print | Product List | Glossary On
Versions: 1 2 3 4 5 6 7 8 9 10 11 12 13 14 15 16 17 18 19 20 21
000
FTUS41 KGYX 231132 AAA
TAFHIE
TAF AMD
KHIE 231132Z 2312/2412 VRB04KT 3SM RA FEW003 BKN025
     FM231300 22004KT 4SM -SHRA OVC040
     FM231600 21008G14KT 6SM -SHRA BKN050
     FM240100 21008KT 4SM BR OVC012=

USA.gov is the U.S. government's official web portal to all federal, state and local government web resources and services.